Aeroporto :
LOGIN :

Iscrizione | Disclaimer

   EN    FR    IT 

 










Sommario :    VFR   VFR Marginale   IFR   IFR Intensivo   IFR Molto Intensivo
Visibilità : 
Base nubi : 
>= 8 km
>= 3000ft
5 / 8 km
1000 / 3000 ft
1500m / 5 km
500 / 1000 ft
800 / 1500m
200 / 500 ft
< 800m
< 200 ft
Simboli :   Temporali  Nebbia  Neve Forte  Precipitazioni Forti  Vento > 20 kt
SIGMETs :   Varie  Temporali  Ghiacco  Turbolenza  Onda orograficha  Ceneri Vulcaniche






- Altitudine del aeroporto : 141 ft
- Codice IATA : TGD


LYPG - Podgorica - Montenegro

ULTIMO METAR :
  • 251300Z 16004G15KT 5000 SHRA FEW016 SCT026TCU SCT034 21/20 Q1005 NOSIG

METARs OBSOLETI :
  • 251230Z 16009KT 110V200 6000 RA FEW016 SCT026TCU SCT034 22/20 Q1005 RESHRA NOSIG
  • 251200Z 32005KT 280V350 6000 RA FEW016 FEW026TCU BKN040 20/19 Q1006 RETS RESHRA NOSIG
  • 251130Z 14006KT 070V180 5000 +TSRA FEW023CB BKN033 19/18 Q1006 NOSIG
  • 251100Z 15009KT 100V180 6000 TSRA FEW023CB SCT040 BKN070 20/18 Q1007 TEMPO VRB15G25KT 2000 +TSRA SCT023CB SCT040
  • 251030Z VRB03KT 8000 TSRA FEW023CB FEW026TCU SCT040 20/18 Q1007 TEMPO 4000 +TSRA SCT023CB SCT040

TAF TAF LYPG
Valido dal 25 a 12 ore il 26 a 12 ore UTC


251100Z 2512/2612 16012KT 9999 BKN030 OVC070 TX22/2514Z TN19/2604Z
TEMPO 2512/2612 VRB15G25KT 4000 TSRA SCT023CB SCT040
PROB40
TEMPO 2512/2606 VRB20G45KT 1500 +TSRA FEW010 BKN020CB
BECMG 2513/2516 16015G25KT



MetMap, La meteo Aeronautica in un colpo d'occhio ! - Copyright ORBIFLY Dicembre 2007 - Disclaimer

ORBIFLY MET'MAP TEAM :

Programmazione e sviluppo : Alexandra Zaïnal
Concezione : Baudouin d'Aumeries
Aiuto per la programmazione : Marc-Olivier Méhu
Supporto tecnico e logistico : Manuel Goepfert
Aiuto per la traduzione : Arnaldo La Scala

Contatto : metmap@orbifly.com




FONTI E CREDITI :

   NOAA